Jackson, MI (49203)

4:36 PM EST on March 03, 2015 (GMT -0500)
Jeffrey Roush Photography - Jackson, MI | Change Station
CLOSE
Current Station
Personal Weather Station
Location: Jackson, MI
Elevation: 986 ft
Nearby Weather Stations
Active Advisory: Winter Weather Advisory

Elev 986 ft 42.26 °N, 84.43 °W | Updated 19 seconds ago

Overcast
Overcast
32.0 °F
Feels Like 32 °F
N
0.0
Wind Variable Wind from North
Gusts 0.0 mph

Today
High -- | Low -- °F
--% Chance of Precip.
Yesterday
High -- | Low -- °F
Precip. -- in
7:10 AM 6:29 PM
Waxing Gibbous, 97% visible
Pressure 29.63 in
Visibility 1.2 miles
Clouds Overcast 600 ft
Windchill 32 °F
Dew Point 32 °F
Humidity 100%
Rainfall 0.00 in
Snow Depth Not available.
UV 1 out of 12
Pollen .50 out of 12
Air Quality Not available.
Flu Activity Not available.
METAR KJXN 032056Z 23013KT 1 1/4SM BR OVC006 01/M01 A2959 RMK AO2 SLP032 60000 I1000 I3001 T00061006 56039

More Conditions Fewer Conditions

Pressure 29.63 in
Visibility 1.2 miles
Clouds Overcast 600 ft
Windchill 32 °F
Dew Point 32 °F
Humidity 100%
Rainfall 0.00 in
Snow Depth Not available.
UV 1 out of 12
Pollen .50 out of 12
Air Quality Not available.
Flu Activity Not available.
METAR KJXN 032056Z 23013KT 1 1/4SM BR OVC006 01/M01 A2959 RMK AO2 SLP032 60000 I1000 I3001 T00061006 56039

More Conditions Fewer Conditions

10-Day Weather Forecast

Almanac

Astronomy

Mar. 03, 2015 Rise Set
Actual Time
Civil Twilight
Nautical Twilight
Astronomical Twilight
Moon
Length of Visible Light
Length of Day
Tomorrow will be .
, % of the Moon is Illuminated

Today's Extremes

State Highs State Lows

Community

WunderPhotos

Upload Photos

1,802,261 photos uploaded!

WunderBlogs® & News

Nearby

Air Quality

  Air Quality AQ Index Pollutant
Not available.

Snow Depth

Station Depth Elevation

Earthquake Activity

City Distance Mag. Time & Date
Minimum magnitude displayed is 2.5.

Coastal Water Temperatures

Place Temperature

Nearby Weather Stations

Winter Weather Advisory
Statement as of 3:41 PM EST on March 03, 2015

... Winter Weather Advisory remains in effect until 8 PM EST this
evening...

Hazardous weather...

* areas of freezing drizzle remain possible into the evening
   hours.

* There may be brief periods of light snow... freezing rain or ice
   pellets.

* There is a chance that patchy freezing drizzle may continue
   into the overnight hours.

Impacts...

* slippery travel will continue into the evening due to the
   mixture of precipitation that has fallen.

* Lesser traveled secondary roads may be the most slick.

* Temperatures will fall through the 20s overnight so anticipate
   the potential for slick travel into the morning commute on
   Wednesday in spots.

Precautionary/preparedness actions...

* be prepared for the slippery Road conditions by allowing
   extra time to reach your destination this evening.

* The Michigan Department of Transportation reminds motorists
   to adjust speeds based on the conditions... and to take it
   slow in ice and snow.